SBSN/STM METAR and TAF weather

Enter ICAO airport designator
Station Type Date Time Source
SBSN METAR 2019/07/15 20:00 UTC NOAA

SBSN 152000Z 09009KT 9999 FEW023 30/24 Q1010


Station Type Date Time Source
SBSN Decoded METAR 2019/07/15 20:00 UTC NOAA

Santarem-Aeroporto, Brazil (SBSN) 02-26S 054-43W 72M
Jul 15, 2019 - 04:00 PM EDT / 2019.07.15 2000 UTC
Wind: from the E (090 degrees) at 10 MPH (9 KT):0
Visibility: greater than 7 mile(s):0
Sky conditions: mostly clear
Temperature: 86 F (30 C)
Heat index: 95.0 F (35.0 C):1
Dew Point: 75 F (24 C)
Relative Humidity: 70%
Pressure (altimeter): 29.83 in. Hg (1010 hPa)
ob: SBSN 152000Z 09009KT 9999 FEW023 30/24 Q1010
cycle: 20

Station Type Date Time Source
SBSN TAF 2019/07/15 18:48 UTC NOAA

TAF SBSN 151500Z 1518/1618 09010KT 9999 SCT017 TN23/1608Z TX30/1617Z
BECMG 1521/1523 12005KT FEW020 FEW023TCU
BECMG 1600/1602 17005KT FEW020 BE CMG 1604/1606 18005KT
BECMG 1609/1611 09005KT SCT015
RMK PGY

Example: see airport list